sensor_id;sensor_type;location;lat;lon;timestamp;P1;durP1;ratioP1;P2;durP2;ratioP2
43529;SDS011;55654;50.966;6.878;2024-01-10T00:02:20;14.93;;;7.25;;
43529;SDS011;55654;50.966;6.878;2024-01-10T00:04:47;19.08;;;7.15;;
43529;SDS011;55654;50.966;6.878;2024-01-10T00:07:13;17.23;;;7.25;;
43529;SDS011;55654;50.966;6.878;2024-01-10T00:09:39;15.65;;;7.00;;
43529;SDS011;55654;50.966;6.878;2024-01-10T00:12:05;20.05;;;7.60;;
43529;SDS011;55654;50.966;6.878;2024-01-10T00:17:17;14.75;;;6.82;;
43529;SDS011;55654;50.966;6.878;2024-01-10T00:19:48;19.23;;;7.82;;
43529;SDS011;55654;50.966;6.878;2024-01-10T00:22:14;16.67;;;7.55;;
43529;SDS011;55654;50.966;6.878;2024-01-10T00:24:43;18.38;;;7.47;;
43529;SDS011;55654;50.966;6.878;2024-01-10T00:27:09;14.52;;;6.70;;
43529;SDS011;55654;50.966;6.878;2024-01-10T00:29:43;14.40;;;6.90;;
43529;SDS011;55654;50.966;6.878;2024-01-10T00:32:09;15.23;;;7.30;;
43529;SDS011;55654;50.966;6.878;2024-01-10T00:34:35;16.05;;;7.05;;
43529;SDS011;55654;50.966;6.878;2024-01-10T00:37:10;13.82;;;6.00;;
43529;SDS011;55654;50.966;6.878;2024-01-10T00:39:36;15.10;;;7.30;;
43529;SDS011;55654;50.966;6.878;2024-01-10T00:42:04;20.48;;;7.30;;
43529;SDS011;55654;50.966;6.878;2024-01-10T00:44:37;15.82;;;6.50;;
43529;SDS011;55654;50.966;6.878;2024-01-10T00:47:21;17.77;;;6.32;;
43529;SDS011;55654;50.966;6.878;2024-01-10T00:49:47;16.98;;;7.20;;
43529;SDS011;55654;50.966;6.878;2024-01-10T00:52:13;19.55;;;8.15;;
43529;SDS011;55654;50.966;6.878;2024-01-10T00:54:41;15.70;;;6.85;;
43529;SDS011;55654;50.966;6.878;2024-01-10T00:57:12;17.23;;;7.28;;
43529;SDS011;55654;50.966;6.878;2024-01-10T00:59:48;14.80;;;6.90;;
43529;SDS011;55654;50.966;6.878;2024-01-10T01:02:14;19.75;;;8.23;;
43529;SDS011;55654;50.966;6.878;2024-01-10T01:04:43;15.60;;;7.57;;
43529;SDS011;55654;50.966;6.878;2024-01-10T01:07:15;14.65;;;7.20;;
43529;SDS011;55654;50.966;6.878;2024-01-10T01:09:54;29.10;;;8.70;;
43529;SDS011;55654;50.966;6.878;2024-01-10T01:12:27;17.20;;;7.28;;
43529;SDS011;55654;50.966;6.878;2024-01-10T01:14:54;16.13;;;8.13;;
43529;SDS011;55654;50.966;6.878;2024-01-10T01:17:25;12.60;;;6.50;;
43529;SDS011;55654;50.966;6.878;2024-01-10T01:19:53;17.30;;;7.05;;
43529;SDS011;55654;50.966;6.878;2024-01-10T01:22:42;19.17;;;7.43;;
43529;SDS011;55654;50.966;6.878;2024-01-10T01:25:08;15.23;;;6.85;;
43529;SDS011;55654;50.966;6.878;2024-01-10T01:27:39;16.95;;;7.43;;
43529;SDS011;55654;50.966;6.878;2024-01-10T01:32:56;16.50;;;7.38;;
43529;SDS011;55654;50.966;6.878;2024-01-10T01:35:31;18.30;;;8.27;;
43529;SDS011;55654;50.966;6.878;2024-01-10T01:37:57;17.38;;;7.38;;
43529;SDS011;55654;50.966;6.878;2024-01-10T01:40:36;19.88;;;8.43;;
43529;SDS011;55654;50.966;6.878;2024-01-10T01:43:09;16.75;;;7.40;;
43529;SDS011;55654;50.966;6.878;2024-01-10T01:45:41;15.90;;;7.65;;
43529;SDS011;55654;50.966;6.878;2024-01-10T01:48:10;17.67;;;8.65;;
43529;SDS011;55654;50.966;6.878;2024-01-10T01:50:42;15.70;;;7.57;;
43529;SDS011;55654;50.966;6.878;2024-01-10T01:53:19;15.85;;;7.00;;
43529;SDS011;55654;50.966;6.878;2024-01-10T01:55:48;16.83;;;7.43;;
43529;SDS011;55654;50.966;6.878;2024-01-10T01:58:16;16.17;;;8.02;;
43529;SDS011;55654;50.966;6.878;2024-01-10T02:00:43;13.18;;;6.97;;
43529;SDS011;55654;50.966;6.878;2024-01-10T02:03:12;15.73;;;6.63;;
43529;SDS011;55654;50.966;6.878;2024-01-10T02:05:43;15.52;;;6.63;;
43529;SDS011;55654;50.966;6.878;2024-01-10T02:08:17;18.42;;;7.78;;
43529;SDS011;55654;50.966;6.878;2024-01-10T02:10:43;16.27;;;7.47;;
43529;SDS011;55654;50.966;6.878;2024-01-10T02:13:09;18.08;;;7.72;;
43529;SDS011;55654;50.966;6.878;2024-01-10T02:15:43;18.17;;;7.57;;
43529;SDS011;55654;50.966;6.878;2024-01-10T02:18:12;17.92;;;6.97;;
43529;SDS011;55654;50.966;6.878;2024-01-10T02:20:43;14.75;;;6.10;;
43529;SDS011;55654;50.966;6.878;2024-01-10T02:23:09;16.30;;;6.82;;
43529;SDS011;55654;50.966;6.878;2024-01-10T02:25:41;16.38;;;7.57;;
43529;SDS011;55654;50.966;6.878;2024-01-10T02:28:07;15.50;;;7.80;;
43529;SDS011;55654;50.966;6.878;2024-01-10T02:30:34;17.02;;;7.22;;
43529;SDS011;55654;50.966;6.878;2024-01-10T02:33:03;17.60;;;7.93;;
43529;SDS011;55654;50.966;6.878;2024-01-10T02:35:29;14.73;;;6.40;;
43529;SDS011;55654;50.966;6.878;2024-01-10T02:37:57;13.70;;;6.25;;
43529;SDS011;55654;50.966;6.878;2024-01-10T02:40:24;15.55;;;7.00;;
43529;SDS011;55654;50.966;6.878;2024-01-10T02:42:50;13.82;;;6.22;;
43529;SDS011;55654;50.966;6.878;2024-01-10T02:45:16;20.17;;;7.25;;
43529;SDS011;55654;50.966;6.878;2024-01-10T02:47:48;15.05;;;7.55;;
43529;SDS011;55654;50.966;6.878;2024-01-10T02:50:14;16.63;;;7.30;;
43529;SDS011;55654;50.966;6.878;2024-01-10T02:52:44;13.82;;;6.85;;
43529;SDS011;55654;50.966;6.878;2024-01-10T02:55:10;13.63;;;6.72;;
43529;SDS011;55654;50.966;6.878;2024-01-10T02:57:39;13.27;;;6.97;;
43529;SDS011;55654;50.966;6.878;2024-01-10T03:00:10;16.27;;;7.15;;
43529;SDS011;55654;50.966;6.878;2024-01-10T03:02:37;15.40;;;7.18;;
43529;SDS011;55654;50.966;6.878;2024-01-10T03:05:06;19.10;;;6.50;;
43529;SDS011;55654;50.966;6.878;2024-01-10T03:07:32;14.05;;;6.40;;
43529;SDS011;55654;50.966;6.878;2024-01-10T03:09:58;17.00;;;7.05;;
43529;SDS011;55654;50.966;6.878;2024-01-10T03:12:29;16.60;;;7.18;;
43529;SDS011;55654;50.966;6.878;2024-01-10T03:14:59;16.83;;;7.03;;
43529;SDS011;55654;50.966;6.878;2024-01-10T03:17:25;15.43;;;6.43;;
43529;SDS011;55654;50.966;6.878;2024-01-10T03:19:54;15.95;;;7.00;;
43529;SDS011;55654;50.966;6.878;2024-01-10T03:22:28;16.42;;;6.70;;
43529;SDS011;55654;50.966;6.878;2024-01-10T03:24:57;14.57;;;6.30;;
43529;SDS011;55654;50.966;6.878;2024-01-10T03:27:25;13.48;;;6.85;;
43529;SDS011;55654;50.966;6.878;2024-01-10T03:29:51;14.15;;;6.82;;
43529;SDS011;55654;50.966;6.878;2024-01-10T03:32:20;22.23;;;6.45;;
43529;SDS011;55654;50.966;6.878;2024-01-10T03:34:46;18.27;;;7.05;;
43529;SDS011;55654;50.966;6.878;2024-01-10T03:37:16;15.43;;;6.80;;
43529;SDS011;55654;50.966;6.878;2024-01-10T03:39:42;15.75;;;7.78;;
43529;SDS011;55654;50.966;6.878;2024-01-10T03:42:19;16.13;;;7.47;;
43529;SDS011;55654;50.966;6.878;2024-01-10T03:44:47;17.67;;;7.38;;
43529;SDS011;55654;50.966;6.878;2024-01-10T03:47:13;21.95;;;7.95;;
43529;SDS011;55654;50.966;6.878;2024-01-10T03:49:42;17.40;;;7.85;;
43529;SDS011;55654;50.966;6.878;2024-01-10T03:52:10;13.68;;;6.65;;
43529;SDS011;55654;50.966;6.878;2024-01-10T03:54:36;13.90;;;6.63;;
43529;SDS011;55654;50.966;6.878;2024-01-10T03:57:04;16.42;;;6.82;;
43529;SDS011;55654;50.966;6.878;2024-01-10T03:59:32;17.25;;;7.63;;
43529;SDS011;55654;50.966;6.878;2024-01-10T04:01:58;15.18;;;7.53;;
43529;SDS011;55654;50.966;6.878;2024-01-10T04:04:25;14.18;;;7.95;;
43529;SDS011;55654;50.966;6.878;2024-01-10T04:06:51;19.15;;;8.07;;
43529;SDS011;55654;50.966;6.878;2024-01-10T04:09:18;16.15;;;6.90;;
43529;SDS011;55654;50.966;6.878;2024-01-10T04:11:46;15.73;;;6.90;;
43529;SDS011;55654;50.966;6.878;2024-01-10T04:14:12;16.25;;;7.60;;
43529;SDS011;55654;50.966;6.878;2024-01-10T04:16:38;15.63;;;6.78;;
43529;SDS011;55654;50.966;6.878;2024-01-10T04:19:04;17.10;;;6.32;;
43529;SDS011;55654;50.966;6.878;2024-01-10T04:21:31;18.00;;;6.90;;
43529;SDS011;55654;50.966;6.878;2024-01-10T04:23:57;16.73;;;7.18;;
43529;SDS011;55654;50.966;6.878;2024-01-10T04:26:23;19.55;;;6.97;;
43529;SDS011;55654;50.966;6.878;2024-01-10T04:28:52;18.75;;;6.47;;
43529;SDS011;55654;50.966;6.878;2024-01-10T04:31:18;18.10;;;6.80;;
43529;SDS011;55654;50.966;6.878;2024-01-10T04:33:44;16.65;;;7.57;;
43529;SDS011;55654;50.966;6.878;2024-01-10T04:36:13;17.83;;;7.57;;
43529;SDS011;55654;50.966;6.878;2024-01-10T04:38:39;17.13;;;8.25;;
43529;SDS011;55654;50.966;6.878;2024-01-10T04:41:10;17.08;;;7.05;;
43529;SDS011;55654;50.966;6.878;2024-01-10T04:43:38;15.60;;;6.40;;
43529;SDS011;55654;50.966;6.878;2024-01-10T04:46:05;20.05;;;7.57;;
43529;SDS011;55654;50.966;6.878;2024-01-10T04:48:33;18.33;;;6.80;;
43529;SDS011;55654;50.966;6.878;2024-01-10T04:51:00;15.30;;;6.97;;
43529;SDS011;55654;50.966;6.878;2024-01-10T04:53:26;17.08;;;7.47;;
43529;SDS011;55654;50.966;6.878;2024-01-10T04:55:54;18.75;;;7.97;;
43529;SDS011;55654;50.966;6.878;2024-01-10T04:58:22;17.17;;;7.97;;
43529;SDS011;55654;50.966;6.878;2024-01-10T05:00:48;16.02;;;7.07;;
43529;SDS011;55654;50.966;6.878;2024-01-10T05:03:15;17.63;;;7.35;;
43529;SDS011;55654;50.966;6.878;2024-01-10T05:05:41;14.68;;;6.20;;
43529;SDS011;55654;50.966;6.878;2024-01-10T05:08:09;15.40;;;8.02;;
43529;SDS011;55654;50.966;6.878;2024-01-10T05:10:35;16.05;;;7.68;;
43529;SDS011;55654;50.966;6.878;2024-01-10T05:13:04;16.42;;;7.28;;
43529;SDS011;55654;50.966;6.878;2024-01-10T05:15:30;21.73;;;8.02;;
43529;SDS011;55654;50.966;6.878;2024-01-10T05:17:56;18.65;;;7.30;;
43529;SDS011;55654;50.966;6.878;2024-01-10T05:20:22;18.20;;;8.55;;
43529;SDS011;55654;50.966;6.878;2024-01-10T05:22:48;17.08;;;7.50;;
43529;SDS011;55654;50.966;6.878;2024-01-10T05:25:14;14.07;;;6.63;;
43529;SDS011;55654;50.966;6.878;2024-01-10T05:27:43;14.77;;;6.72;;
43529;SDS011;55654;50.966;6.878;2024-01-10T05:30:09;15.20;;;6.72;;
43529;SDS011;55654;50.966;6.878;2024-01-10T05:32:40;17.15;;;7.95;;
43529;SDS011;55654;50.966;6.878;2024-01-10T05:35:07;19.92;;;7.53;;
43529;SDS011;55654;50.966;6.878;2024-01-10T05:37:33;23.90;;;6.80;;
43529;SDS011;55654;50.966;6.878;2024-01-10T05:40:02;20.98;;;6.80;;
43529;SDS011;55654;50.966;6.878;2024-01-10T05:42:29;19.05;;;7.60;;
43529;SDS011;55654;50.966;6.878;2024-01-10T05:44:58;23.35;;;7.05;;
43529;SDS011;55654;50.966;6.878;2024-01-10T05:47:24;20.05;;;8.18;;
43529;SDS011;55654;50.966;6.878;2024-01-10T05:49:52;19.88;;;7.57;;
43529;SDS011;55654;50.966;6.878;2024-01-10T05:52:19;17.85;;;8.10;;
43529;SDS011;55654;50.966;6.878;2024-01-10T05:54:50;27.50;;;8.68;;
43529;SDS011;55654;50.966;6.878;2024-01-10T05:57:18;22.08;;;7.07;;
43529;SDS011;55654;50.966;6.878;2024-01-10T05:59:48;17.10;;;6.88;;
43529;SDS011;55654;50.966;6.878;2024-01-10T06:02:16;22.85;;;8.70;;
43529;SDS011;55654;50.966;6.878;2024-01-10T06:04:45;19.42;;;7.70;;
43529;SDS011;55654;50.966;6.878;2024-01-10T06:07:14;23.90;;;8.77;;
43529;SDS011;55654;50.966;6.878;2024-01-10T06:09:40;19.35;;;7.78;;
43529;SDS011;55654;50.966;6.878;2024-01-10T06:12:08;18.33;;;8.02;;
43529;SDS011;55654;50.966;6.878;2024-01-10T06:14:37;20.15;;;7.28;;
43529;SDS011;55654;50.966;6.878;2024-01-10T06:17:03;24.27;;;8.45;;
43529;SDS011;55654;50.966;6.878;2024-01-10T06:19:29;17.40;;;8.45;;
43529;SDS011;55654;50.966;6.878;2024-01-10T06:21:58;21.20;;;7.88;;
43529;SDS011;55654;50.966;6.878;2024-01-10T06:24:25;20.52;;;8.27;;
43529;SDS011;55654;50.966;6.878;2024-01-10T06:26:54;28.75;;;10.60;;
43529;SDS011;55654;50.966;6.878;2024-01-10T06:29:21;24.05;;;8.98;;
43529;SDS011;55654;50.966;6.878;2024-01-10T06:31:47;23.45;;;7.68;;
43529;SDS011;55654;50.966;6.878;2024-01-10T06:34:15;29.52;;;10.10;;
43529;SDS011;55654;50.966;6.878;2024-01-10T06:36:43;21.77;;;8.63;;
43529;SDS011;55654;50.966;6.878;2024-01-10T06:39:10;17.65;;;8.35;;
43529;SDS011;55654;50.966;6.878;2024-01-10T06:41:40;17.63;;;7.40;;
43529;SDS011;55654;50.966;6.878;2024-01-10T06:44:07;17.88;;;8.80;;
43529;SDS011;55654;50.966;6.878;2024-01-10T06:46:33;22.65;;;8.23;;
43529;SDS011;55654;50.966;6.878;2024-01-10T06:49:04;20.85;;;7.75;;
43529;SDS011;55654;50.966;6.878;2024-01-10T06:51:32;37.00;;;9.27;;
43529;SDS011;55654;50.966;6.878;2024-01-10T06:53:58;31.73;;;9.10;;
43529;SDS011;55654;50.966;6.878;2024-01-10T06:56:30;22.88;;;8.73;;
43529;SDS011;55654;50.966;6.878;2024-01-10T06:58:57;25.48;;;9.10;;
43529;SDS011;55654;50.966;6.878;2024-01-10T07:01:23;22.00;;;8.45;;
43529;SDS011;55654;50.966;6.878;2024-01-10T07:03:49;17.85;;;8.02;;
43529;SDS011;55654;50.966;6.878;2024-01-10T07:06:16;19.60;;;8.77;;
43529;SDS011;55654;50.966;6.878;2024-01-10T07:08:42;22.55;;;7.82;;
43529;SDS011;55654;50.966;6.878;2024-01-10T07:11:16;21.58;;;8.10;;
43529;SDS011;55654;50.966;6.878;2024-01-10T07:13:42;21.40;;;8.43;;
43529;SDS011;55654;50.966;6.878;2024-01-10T07:16:09;25.30;;;10.02;;
43529;SDS011;55654;50.966;6.878;2024-01-10T07:18:35;21.35;;;9.75;;
43529;SDS011;55654;50.966;6.878;2024-01-10T07:21:01;21.67;;;8.82;;
43529;SDS011;55654;50.966;6.878;2024-01-10T07:23:27;27.75;;;9.27;;
43529;SDS011;55654;50.966;6.878;2024-01-10T07:25:53;29.00;;;10.88;;
43529;SDS011;55654;50.966;6.878;2024-01-10T07:28:20;25.92;;;10.07;;
43529;SDS011;55654;50.966;6.878;2024-01-10T07:30:48;28.88;;;12.05;;
43529;SDS011;55654;50.966;6.878;2024-01-10T07:33:19;21.10;;;8.63;;
43529;SDS011;55654;50.966;6.878;2024-01-10T07:35:46;20.50;;;9.40;;
43529;SDS011;55654;50.966;6.878;2024-01-10T07:38:12;23.90;;;10.02;;
43529;SDS011;55654;50.966;6.878;2024-01-10T07:40:40;19.83;;;8.50;;
43529;SDS011;55654;50.966;6.878;2024-01-10T07:43:07;28.58;;;10.13;;
43529;SDS011;55654;50.966;6.878;2024-01-10T07:45:33;29.08;;;10.98;;
43529;SDS011;55654;50.966;6.878;2024-01-10T07:48:01;29.58;;;12.50;;
43529;SDS011;55654;50.966;6.878;2024-01-10T07:50:30;34.97;;;14.63;;
43529;SDS011;55654;50.966;6.878;2024-01-10T07:52:59;31.85;;;11.02;;
43529;SDS011;55654;50.966;6.878;2024-01-10T07:55:26;24.55;;;10.63;;
43529;SDS011;55654;50.966;6.878;2024-01-10T07:57:54;20.85;;;9.38;;
43529;SDS011;55654;50.966;6.878;2024-01-10T08:00:20;17.80;;;9.48;;
43529;SDS011;55654;50.966;6.878;2024-01-10T08:02:50;19.73;;;9.45;;
43529;SDS011;55654;50.966;6.878;2024-01-10T08:05:16;29.50;;;10.27;;
43529;SDS011;55654;50.966;6.878;2024-01-10T08:07:42;17.95;;;8.10;;
43529;SDS011;55654;50.966;6.878;2024-01-10T08:10:16;23.10;;;8.10;;
43529;SDS011;55654;50.966;6.878;2024-01-10T08:12:42;22.33;;;8.98;;
43529;SDS011;55654;50.966;6.878;2024-01-10T08:15:09;20.35;;;9.55;;
43529;SDS011;55654;50.966;6.878;2024-01-10T08:17:35;27.40;;;10.82;;
43529;SDS011;55654;50.966;6.878;2024-01-10T08:20:05;22.42;;;9.43;;
43529;SDS011;55654;50.966;6.878;2024-01-10T08:22:31;24.83;;;9.95;;
43529;SDS011;55654;50.966;6.878;2024-01-10T08:24:57;24.40;;;10.18;;
43529;SDS011;55654;50.966;6.878;2024-01-10T08:27:26;26.58;;;10.00;;
43529;SDS011;55654;50.966;6.878;2024-01-10T08:29:52;20.58;;;9.55;;
43529;SDS011;55654;50.966;6.878;2024-01-10T08:32:21;25.02;;;12.43;;
43529;SDS011;55654;50.966;6.878;2024-01-10T08:34:51;26.20;;;11.05;;
43529;SDS011;55654;50.966;6.878;2024-01-10T08:37:17;26.13;;;11.85;;
43529;SDS011;55654;50.966;6.878;2024-01-10T08:39:46;27.33;;;10.93;;
43529;SDS011;55654;50.966;6.878;2024-01-10T08:42:15;26.15;;;10.70;;
43529;SDS011;55654;50.966;6.878;2024-01-10T08:44:41;29.85;;;10.70;;
43529;SDS011;55654;50.966;6.878;2024-01-10T08:47:10;25.73;;;11.52;;
43529;SDS011;55654;50.966;6.878;2024-01-10T08:49:45;25.95;;;10.68;;
43529;SDS011;55654;50.966;6.878;2024-01-10T08:52:11;25.95;;;11.05;;
43529;SDS011;55654;50.966;6.878;2024-01-10T08:54:51;21.27;;;9.50;;
43529;SDS011;55654;50.966;6.878;2024-01-10T08:57:19;22.42;;;9.45;;
43529;SDS011;55654;50.966;6.878;2024-01-10T08:59:45;23.85;;;10.77;;
43529;SDS011;55654;50.966;6.878;2024-01-10T09:02:11;26.50;;;10.05;;
43529;SDS011;55654;50.966;6.878;2024-01-10T09:04:40;21.95;;;9.52;;
43529;SDS011;55654;50.966;6.878;2024-01-10T09:07:09;28.40;;;11.13;;
43529;SDS011;55654;50.966;6.878;2024-01-10T09:09:35;29.13;;;9.73;;
43529;SDS011;55654;50.966;6.878;2024-01-10T09:12:04;20.17;;;9.70;;
43529;SDS011;55654;50.966;6.878;2024-01-10T09:14:30;26.95;;;11.68;;
43529;SDS011;55654;50.966;6.878;2024-01-10T09:17:06;24.20;;;10.15;;
43529;SDS011;55654;50.966;6.878;2024-01-10T09:19:38;27.67;;;12.07;;
43529;SDS011;55654;50.966;6.878;2024-01-10T09:22:21;27.35;;;11.73;;
43529;SDS011;55654;50.966;6.878;2024-01-10T09:24:48;29.08;;;11.90;;
43529;SDS011;55654;50.966;6.878;2024-01-10T09:27:14;24.48;;;10.52;;
43529;SDS011;55654;50.966;6.878;2024-01-10T09:29:40;27.70;;;11.35;;
43529;SDS011;55654;50.966;6.878;2024-01-10T09:32:07;28.27;;;10.85;;
43529;SDS011;55654;50.966;6.878;2024-01-10T09:34:36;27.45;;;10.77;;
43529;SDS011;55654;50.966;6.878;2024-01-10T09:37:02;28.63;;;11.18;;
43529;SDS011;55654;50.966;6.878;2024-01-10T09:39:32;32.75;;;12.15;;
43529;SDS011;55654;50.966;6.878;2024-01-10T09:41:58;30.92;;;11.00;;
43529;SDS011;55654;50.966;6.878;2024-01-10T09:44:32;23.80;;;10.73;;
43529;SDS011;55654;50.966;6.878;2024-01-10T09:46:58;29.88;;;14.30;;
43529;SDS011;55654;50.966;6.878;2024-01-10T09:49:24;27.75;;;12.20;;
43529;SDS011;55654;50.966;6.878;2024-01-10T09:51:53;26.02;;;11.57;;
43529;SDS011;55654;50.966;6.878;2024-01-10T09:54:21;27.92;;;11.82;;
43529;SDS011;55654;50.966;6.878;2024-01-10T09:56:50;29.42;;;11.50;;
43529;SDS011;55654;50.966;6.878;2024-01-10T09:59:24;31.55;;;13.73;;
43529;SDS011;55654;50.966;6.878;2024-01-10T10:01:54;28.17;;;11.35;;
43529;SDS011;55654;50.966;6.878;2024-01-10T10:07:34;26.30;;;11.85;;
43529;SDS011;55654;50.966;6.878;2024-01-10T10:10:08;30.95;;;12.75;;
43529;SDS011;55654;50.966;6.878;2024-01-10T10:15:22;42.50;;;19.52;;
43529;SDS011;55654;50.966;6.878;2024-01-10T10:17:51;34.65;;;16.52;;
43529;SDS011;55654;50.966;6.878;2024-01-10T10:20:25;39.20;;;17.17;;
43529;SDS011;55654;50.966;6.878;2024-01-10T10:25:19;36.40;;;15.45;;
43529;SDS011;55654;50.966;6.878;2024-01-10T10:27:46;30.58;;;12.95;;
43529;SDS011;55654;50.966;6.878;2024-01-10T10:30:12;26.02;;;11.02;;
43529;SDS011;55654;50.966;6.878;2024-01-10T10:32:39;24.60;;;10.73;;
43529;SDS011;55654;50.966;6.878;2024-01-10T10:35:05;25.80;;;10.38;;
43529;SDS011;55654;50.966;6.878;2024-01-10T10:37:32;24.05;;;10.35;;
43529;SDS011;55654;50.966;6.878;2024-01-10T10:40:00;27.27;;;11.75;;
43529;SDS011;55654;50.966;6.878;2024-01-10T10:42:26;26.80;;;11.70;;
43529;SDS011;55654;50.966;6.878;2024-01-10T10:44:54;22.13;;;10.40;;
43529;SDS011;55654;50.966;6.878;2024-01-10T10:47:23;28.30;;;10.27;;
43529;SDS011;55654;50.966;6.878;2024-01-10T10:49:52;28.77;;;10.70;;
43529;SDS011;55654;50.966;6.878;2024-01-10T10:52:19;26.20;;;10.30;;
43529;SDS011;55654;50.966;6.878;2024-01-10T10:54:46;51.38;;;11.52;;
43529;SDS011;55654;50.966;6.878;2024-01-10T10:57:13;29.85;;;10.38;;
43529;SDS011;55654;50.966;6.878;2024-01-10T10:59:44;29.50;;;12.35;;
43529;SDS011;55654;50.966;6.878;2024-01-10T11:02:11;26.55;;;10.93;;
43529;SDS011;55654;50.966;6.878;2024-01-10T11:04:37;25.30;;;10.43;;
43529;SDS011;55654;50.966;6.878;2024-01-10T11:07:04;25.77;;;12.35;;
43529;SDS011;55654;50.966;6.878;2024-01-10T11:09:30;25.40;;;10.65;;
43529;SDS011;55654;50.966;6.878;2024-01-10T11:25:07;52.22;;;20.90;;
43529;SDS011;55654;50.966;6.878;2024-01-10T11:27:33;55.65;;;21.65;;
43529;SDS011;55654;50.966;6.878;2024-01-10T11:30:02;39.67;;;15.23;;
43529;SDS011;55654;50.966;6.878;2024-01-10T11:32:31;37.27;;;14.90;;
43529;SDS011;55654;50.966;6.878;2024-01-10T11:35:03;39.27;;;13.30;;
43529;SDS011;55654;50.966;6.878;2024-01-10T11:37:44;40.00;;;14.40;;
43529;SDS011;55654;50.966;6.878;2024-01-10T11:40:11;28.13;;;11.83;;
43529;SDS011;55654;50.966;6.878;2024-01-10T11:42:40;27.77;;;13.03;;
43529;SDS011;55654;50.966;6.878;2024-01-10T11:45:07;30.73;;;12.17;;
43529;SDS011;55654;50.966;6.878;2024-01-10T11:47:33;26.60;;;12.10;;
43529;SDS011;55654;50.966;6.878;2024-01-10T11:50:01;28.23;;;11.83;;
43529;SDS011;55654;50.966;6.878;2024-01-10T11:52:32;33.33;;;12.87;;
43529;SDS011;55654;50.966;6.878;2024-01-10T11:54:59;33.10;;;13.53;;
43529;SDS011;55654;50.966;6.878;2024-01-10T11:57:25;35.00;;;10.80;;
43529;SDS011;55654;50.966;6.878;2024-01-10T11:59:52;23.67;;;10.73;;
43529;SDS011;55654;50.966;6.878;2024-01-10T12:02:19;26.17;;;11.67;;
43529;SDS011;55654;50.966;6.878;2024-01-10T12:04:45;25.30;;;10.70;;
43529;SDS011;55654;50.966;6.878;2024-01-10T12:07:12;26.37;;;11.20;;
43529;SDS011;55654;50.966;6.878;2024-01-10T12:09:38;28.73;;;12.23;;
43529;SDS011;55654;50.966;6.878;2024-01-10T12:12:04;29.73;;;11.03;;
43529;SDS011;55654;50.966;6.878;2024-01-10T12:14:31;30.67;;;11.37;;
43529;SDS011;55654;50.966;6.878;2024-01-10T12:17:00;24.27;;;11.30;;
43529;SDS011;55654;50.966;6.878;2024-01-10T12:19:27;22.97;;;10.53;;
43529;SDS011;55654;50.966;6.878;2024-01-10T12:21:53;25.13;;;11.30;;
43529;SDS011;55654;50.966;6.878;2024-01-10T12:24:19;28.70;;;11.20;;
43529;SDS011;55654;50.966;6.878;2024-01-10T12:26:46;27.03;;;11.77;;
43529;SDS011;55654;50.966;6.878;2024-01-10T12:29:12;25.80;;;10.03;;
43529;SDS011;55654;50.966;6.878;2024-01-10T12:31:39;26.13;;;11.53;;
43529;SDS011;55654;50.966;6.878;2024-01-10T12:34:06;24.50;;;11.00;;
43529;SDS011;55654;50.966;6.878;2024-01-10T12:36:34;25.50;;;10.67;;
43529;SDS011;55654;50.966;6.878;2024-01-10T12:39:00;28.63;;;11.67;;
43529;SDS011;55654;50.966;6.878;2024-01-10T12:41:28;29.07;;;10.20;;
43529;SDS011;55654;50.966;6.878;2024-01-10T12:43:55;30.57;;;13.03;;
43529;SDS011;55654;50.966;6.878;2024-01-10T12:46:21;23.03;;;10.57;;
43529;SDS011;55654;50.966;6.878;2024-01-10T12:49:00;27.23;;;11.47;;
43529;SDS011;55654;50.966;6.878;2024-01-10T12:51:27;22.50;;;10.17;;
43529;SDS011;55654;50.966;6.878;2024-01-10T12:53:55;23.33;;;11.33;;
43529;SDS011;55654;50.966;6.878;2024-01-10T12:56:21;27.33;;;11.73;;
43529;SDS011;55654;50.966;6.878;2024-01-10T12:58:47;27.97;;;11.37;;
43529;SDS011;55654;50.966;6.878;2024-01-10T13:01:13;25.40;;;11.80;;
43529;SDS011;55654;50.966;6.878;2024-01-10T13:03:40;23.50;;;11.97;;
43529;SDS011;55654;50.966;6.878;2024-01-10T13:06:06;26.07;;;12.27;;
43529;SDS011;55654;50.966;6.878;2024-01-10T13:08:32;28.17;;;12.30;;
43529;SDS011;55654;50.966;6.878;2024-01-10T13:10:58;30.13;;;11.40;;
43529;SDS011;55654;50.966;6.878;2024-01-10T13:13:36;25.83;;;12.07;;
43529;SDS011;55654;50.966;6.878;2024-01-10T13:16:02;27.43;;;11.17;;
43529;SDS011;55654;50.966;6.878;2024-01-10T13:18:28;29.13;;;11.77;;
43529;SDS011;55654;50.966;6.878;2024-01-10T13:20:55;28.40;;;12.67;;
43529;SDS011;55654;50.966;6.878;2024-01-10T13:23:21;26.13;;;11.87;;
43529;SDS011;55654;50.966;6.878;2024-01-10T13:25:48;27.83;;;11.37;;
43529;SDS011;55654;50.966;6.878;2024-01-10T13:28:14;26.10;;;11.93;;
43529;SDS011;55654;50.966;6.878;2024-01-10T13:30:41;28.97;;;10.87;;
43529;SDS011;55654;50.966;6.878;2024-01-10T13:33:08;27.40;;;12.13;;
43529;SDS011;55654;50.966;6.878;2024-01-10T13:35:34;25.57;;;10.13;;
43529;SDS011;55654;50.966;6.878;2024-01-10T13:38:01;27.20;;;12.73;;
43529;SDS011;55654;50.966;6.878;2024-01-10T13:40:27;28.53;;;13.13;;
43529;SDS011;55654;50.966;6.878;2024-01-10T13:42:53;32.10;;;12.40;;
43529;SDS011;55654;50.966;6.878;2024-01-10T13:45:19;28.37;;;12.73;;
43529;SDS011;55654;50.966;6.878;2024-01-10T13:47:46;24.50;;;10.53;;
43529;SDS011;55654;50.966;6.878;2024-01-10T13:50:14;27.37;;;12.77;;
43529;SDS011;55654;50.966;6.878;2024-01-10T13:52:40;31.07;;;13.83;;
43529;SDS011;55654;50.966;6.878;2024-01-10T13:55:07;27.00;;;11.07;;
43529;SDS011;55654;50.966;6.878;2024-01-10T13:57:34;24.27;;;10.33;;
43529;SDS011;55654;50.966;6.878;2024-01-10T14:00:00;29.07;;;11.63;;
43529;SDS011;55654;50.966;6.878;2024-01-10T14:02:29;23.63;;;10.80;;
43529;SDS011;55654;50.966;6.878;2024-01-10T14:04:55;26.43;;;11.73;;
43529;SDS011;55654;50.966;6.878;2024-01-10T14:07:24;25.27;;;11.57;;
43529;SDS011;55654;50.966;6.878;2024-01-10T14:09:50;61.23;;;24.87;;
43529;SDS011;55654;50.966;6.878;2024-01-10T14:12:19;42.90;;;17.77;;
43529;SDS011;55654;50.966;6.878;2024-01-10T14:14:45;25.37;;;13.07;;
43529;SDS011;55654;50.966;6.878;2024-01-10T14:17:11;28.47;;;11.50;;
43529;SDS011;55654;50.966;6.878;2024-01-10T14:19:37;28.80;;;12.87;;
43529;SDS011;55654;50.966;6.878;2024-01-10T14:22:03;31.37;;;14.07;;
43529;SDS011;55654;50.966;6.878;2024-01-10T14:24:32;27.27;;;12.37;;
43529;SDS011;55654;50.966;6.878;2024-01-10T14:26:58;33.93;;;12.63;;
43529;SDS011;55654;50.966;6.878;2024-01-10T14:29:24;25.40;;;11.47;;
43529;SDS011;55654;50.966;6.878;2024-01-10T14:31:50;26.73;;;12.47;;
43529;SDS011;55654;50.966;6.878;2024-01-10T14:34:16;27.57;;;12.43;;
43529;SDS011;55654;50.966;6.878;2024-01-10T14:36:42;25.73;;;11.53;;
43529;SDS011;55654;50.966;6.878;2024-01-10T14:39:08;26.00;;;12.83;;
43529;SDS011;55654;50.966;6.878;2024-01-10T14:41:37;29.43;;;12.30;;
43529;SDS011;55654;50.966;6.878;2024-01-10T14:44:03;29.70;;;13.93;;
43529;SDS011;55654;50.966;6.878;2024-01-10T14:46:29;31.20;;;14.20;;
43529;SDS011;55654;50.966;6.878;2024-01-10T14:48:58;29.53;;;11.57;;
43529;SDS011;55654;50.966;6.878;2024-01-10T14:51:24;31.50;;;13.30;;
43529;SDS011;55654;50.966;6.878;2024-01-10T14:53:50;24.00;;;11.43;;
43529;SDS011;55654;50.966;6.878;2024-01-10T14:56:16;29.90;;;13.10;;
43529;SDS011;55654;50.966;6.878;2024-01-10T14:58:44;23.87;;;11.57;;
43529;SDS011;55654;50.966;6.878;2024-01-10T15:01:10;23.77;;;11.00;;